createdAt,value
2019-02-10T00:00:46.820Z,97692.70
2019-02-10T00:03:15.769Z,97692.70
2019-02-10T00:05:44.854Z,97687.27
2019-02-10T00:08:13.642Z,97684.48
2019-02-10T00:10:42.115Z,97686.78
2019-02-10T00:13:30.168Z,97685.51
2019-02-10T00:15:59.073Z,97677.48
2019-02-10T00:18:27.560Z,97688.37
2019-02-10T00:20:56.387Z,97687.75
2019-02-10T00:23:25.533Z,97678.50
2019-02-10T00:25:54.225Z,97672.05
2019-02-10T00:28:22.670Z,97678.84
2019-02-10T00:30:51.370Z,97667.09
2019-02-10T00:33:19.832Z,97663.41
2019-02-10T00:35:48.249Z,97658.21
2019-02-10T00:38:17.333Z,97652.51
2019-02-10T00:40:45.767Z,97646.09
2019-02-10T00:43:14.218Z,97646.09
2019-02-10T00:45:42.976Z,97654.66
2019-02-10T00:48:11.456Z,97641.33
2019-02-10T00:50:39.913Z,97636.83
2019-02-10T00:53:08.358Z,97639.77
2019-02-10T00:55:36.785Z,97626.44
2019-02-10T00:58:05.244Z,97630.45
2019-02-10T01:00:33.934Z,97620.52
2019-02-10T01:03:02.366Z,97618.04
2019-02-10T01:05:30.811Z,97613.23
2019-02-10T01:07:59.256Z,97610.66
2019-02-10T01:10:28.907Z,97617.40
2019-02-10T01:12:57.380Z,97614.25
2019-02-10T01:15:26.173Z,97605.18
2019-02-10T01:17:54.605Z,97598.48
2019-02-10T01:20:23.276Z,97600.93
2019-02-10T01:22:51.781Z,97595.62
2019-02-10T01:25:20.278Z,97592.17
2019-02-10T01:27:49.050Z,97595.50
2019-02-10T01:30:17.501Z,97585.56
2019-02-10T01:32:45.953Z,97587.64
2019-02-10T01:35:14.440Z,97589.32
2019-02-10T01:37:43.929Z,97585.19
2019-02-10T01:40:12.627Z,97570.41
2019-02-10T01:42:41.067Z,97568.45
2019-02-10T01:45:11.845Z,97568.56
2019-02-10T01:47:40.289Z,97567.59
2019-02-10T01:50:09.835Z,97559.44
2019-02-10T01:52:38.531Z,97550.89
2019-02-10T01:55:08.361Z,97552.02
2019-02-10T01:57:37.121Z,97546.47
2019-02-10T02:00:06.814Z,97547.56
2019-02-10T02:02:35.234Z,97523.48
2019-02-10T02:05:05.285Z,97521.22
2019-02-10T02:07:34.010Z,97517.20
2019-02-10T02:10:02.458Z,97508.18
2019-02-10T02:12:30.881Z,97497.61
2019-02-10T02:14:59.645Z,97510.90
2019-02-10T02:17:28.416Z,97492.37
2019-02-10T02:19:57.090Z,97483.24
2019-02-10T02:22:25.810Z,97476.06
2019-02-10T02:24:54.255Z,97473.98
2019-02-10T02:27:22.976Z,97468.80
2019-02-10T02:29:51.943Z,97464.58
2019-02-10T02:32:20.427Z,97462.25
2019-02-10T02:34:49.167Z,97455.58
2019-02-10T02:37:17.590Z,97450.15
2019-02-10T02:39:46.506Z,97439.41
2019-02-10T02:42:14.932Z,97436.56
2019-02-10T02:44:43.953Z,97438.52
2019-02-10T02:47:12.398Z,97426.37
2019-02-10T02:49:41.145Z,97430.98
2019-02-10T02:52:10.240Z,97421.75
2019-02-10T02:54:39.236Z,97418.66
2019-02-10T02:57:08.035Z,97429.28
2019-02-10T02:59:36.468Z,97423.61
2019-02-10T03:02:04.922Z,97418.19
2019-02-10T03:04:33.686Z,97410.78
2019-02-10T03:07:02.115Z,97408.42
2019-02-10T03:09:31.148Z,97395.85
2019-02-10T03:11:59.595Z,97396.34
2019-02-10T03:14:28.283Z,97388.07
2019-02-10T03:16:57.032Z,97374.23
2019-02-10T03:19:25.461Z,97374.81
2019-02-10T03:21:54.579Z,97364.13
2019-02-10T03:24:23.264Z,97353.68
2019-02-10T03:26:52.351Z,97363.77
2019-02-10T03:29:20.787Z,97355.10
2019-02-10T03:31:49.825Z,97343.69
2019-02-10T03:34:21.333Z,97349.18
2019-02-10T03:36:50.280Z,97335.33
2019-02-10T03:39:18.766Z,97331.14
2019-02-10T03:41:47.823Z,97326.22
2019-02-10T03:44:16.640Z,97318.08
2019-02-10T03:46:45.974Z,97308.56
2019-02-10T03:49:14.414Z,97297.13
2019-02-10T03:51:42.928Z,97294.48
2019-02-10T03:54:11.731Z,97288.20
2019-02-10T03:56:41.004Z,97285.89
2019-02-10T03:59:09.613Z,97283.47
2019-02-10T04:01:38.504Z,97250.55
2019-02-10T04:04:07.771Z,97236.63
2019-02-10T04:06:36.211Z,97241.06
2019-02-10T04:09:05.416Z,97238.81
2019-02-10T04:11:34.351Z,97246.70
2019-02-10T04:14:03.198Z,97255.17
2019-02-10T04:16:31.662Z,97237.19
2019-02-10T04:19:01.215Z,97229.52
2019-02-10T04:21:32.212Z,97240.86
2019-02-10T04:24:00.688Z,97212.22
2019-02-10T04:26:29.253Z,97213.09
2019-02-10T04:28:58.014Z,97216.29
2019-02-10T04:31:26.675Z,97224.55
2019-02-10T04:33:55.791Z,97200.25
2019-02-10T04:36:24.209Z,97213.83
2019-02-10T04:38:52.919Z,97193.77
2019-02-10T04:41:21.637Z,97187.56
2019-02-10T04:43:50.484Z,97186.20
2019-02-10T04:46:18.925Z,97178.20
2019-02-10T04:48:47.686Z,97172.66
2019-02-10T04:51:16.112Z,97172.55
2019-02-10T04:53:44.559Z,97164.03
2019-02-10T04:56:19.298Z,97146.21
2019-02-10T04:58:47.832Z,97135.31
2019-02-10T05:01:16.357Z,97127.64
2019-02-10T05:03:44.806Z,97119.09
2019-02-10T05:06:13.519Z,97116.93
2019-02-10T05:08:42.191Z,97109.80
2019-02-10T05:11:10.630Z,97092.47
2019-02-10T05:13:39.312Z,97087.03
2019-02-10T05:16:07.741Z,97086.49
2019-02-10T05:18:36.477Z,97083.38
2019-02-10T05:21:04.946Z,97069.77
2019-02-10T05:23:33.710Z,97069.84
2019-02-10T05:26:02.873Z,97057.34
2019-02-10T05:28:31.309Z,97049.83
2019-02-10T05:31:00.026Z,97046.30
2019-02-10T05:33:28.812Z,97053.70
2019-02-10T05:35:57.682Z,97044.70
2019-02-10T05:38:26.117Z,97046.56
2019-02-10T05:40:55.467Z,97025.97
2019-02-10T05:43:24.279Z,97001.45
2019-02-10T05:45:52.910Z,97001.38
2019-02-10T05:48:21.350Z,97014.74
2019-02-10T05:50:50.545Z,96989.31
2019-02-10T05:53:19.206Z,96984.19
2019-02-10T05:55:49.520Z,96977.26
2019-02-10T05:58:18.254Z,96971.10
2019-02-10T06:00:46.730Z,96959.78
2019-02-10T06:03:15.417Z,96962.64
2019-02-10T06:05:43.853Z,96957.07
2019-02-10T06:08:13.630Z,96949.41
2019-02-10T06:10:42.392Z,96913.81
2019-02-10T06:13:10.947Z,96933.12
2019-02-10T06:15:39.701Z,96912.72
2019-02-10T06:18:08.131Z,96901.07
2019-02-10T06:20:37.031Z,96886.02
2019-02-10T06:23:05.847Z,96890.66
2019-02-10T06:25:34.570Z,96870.45
2019-02-10T06:28:03.298Z,96877.73
2019-02-10T06:30:31.760Z,96880.02
2019-02-10T06:33:00.461Z,96830.67
2019-02-10T06:35:29.171Z,96826.23
2019-02-10T06:37:57.686Z,96828.94
2019-02-10T06:40:26.819Z,96823.12
2019-02-10T06:42:55.575Z,96807.66
2019-02-10T06:45:24.836Z,96805.91
2019-02-10T06:47:55.458Z,96797.62
2019-02-10T06:50:23.896Z,96788.03
2019-02-10T06:52:52.317Z,96775.53
2019-02-10T06:55:20.828Z,96766.91
2019-02-10T06:57:49.572Z,96752.88
2019-02-10T07:00:36.174Z,96753.30
2019-02-10T07:03:51.574Z,96735.42
2019-02-10T07:06:23.313Z,96730.30
2019-02-10T07:08:51.739Z,96714.03
2019-02-10T07:11:21.090Z,96717.94
2019-02-10T07:13:52.381Z,96714.50
2019-02-10T07:16:42.102Z,96696.69
2019-02-10T07:19:47.359Z,96695.33
2019-02-10T07:23:06.904Z,96679.53
2019-02-10T07:25:56.227Z,96662.61
2019-02-10T07:29:00.667Z,96652.69
2019-02-10T07:31:35.840Z,96644.38
2019-02-10T07:34:49.788Z,96637.19
2019-02-10T07:37:43.290Z,96637.47
2019-02-10T07:40:57.642Z,96609.69
2019-02-10T07:44:02.297Z,96612.49
2019-02-10T07:47:12.379Z,96584.41
2019-02-10T07:50:21.973Z,96588.88
2019-02-10T07:53:03.489Z,96572.80
2019-02-10T07:56:10.131Z,96574.62
2019-02-10T07:59:22.858Z,96548.90
2019-02-10T08:02:00.263Z,96545.28
2019-02-10T08:05:13.266Z,96547.34
2019-02-10T08:08:20.448Z,96532.42
2019-02-10T08:11:35.772Z,96525.03
2019-02-10T08:14:49.161Z,96531.26
2019-02-10T08:17:39.353Z,96527.89
2019-02-10T08:20:40.536Z,96498.85
2019-02-10T08:23:36.145Z,96498.75
2019-02-10T08:26:45.636Z,96477.98
2019-02-10T08:29:39.039Z,96477.78
2019-02-10T08:32:25.118Z,96461.70
2019-02-10T08:35:27.904Z,96459.37
2019-02-10T08:38:19.014Z,96459.48
2019-02-10T08:41:47.192Z,96424.45
2019-02-10T08:44:34.039Z,96419.37
2019-02-10T08:47:42.847Z,96411.12
2019-02-10T08:50:23.227Z,96413.83
2019-02-10T08:53:01.968Z,96408.78
2019-02-10T08:55:30.385Z,96376.97
2019-02-10T08:57:58.838Z,96367.02
2019-02-10T09:00:27.248Z,96363.18
2019-02-10T09:02:55.685Z,96367.03
2019-02-10T09:05:24.635Z,96371.69
2019-02-10T09:07:53.552Z,96372.94
2019-02-10T09:10:22.298Z,96345.78
2019-02-10T09:12:51.378Z,96351.68
2019-02-10T09:15:19.794Z,96332.18
2019-02-10T09:17:48.240Z,96333.33
2019-02-10T09:20:16.666Z,96330.17
2019-02-10T09:22:45.388Z,96325.87
2019-02-10T09:25:13.828Z,96317.92
2019-02-10T09:27:42.282Z,96307.75
2019-02-10T09:30:11.620Z,96310.91
2019-02-10T09:32:40.358Z,96289.17
2019-02-10T09:35:08.862Z,96299.13
2019-02-10T09:37:37.286Z,96288.14
2019-02-10T09:40:06.048Z,96281.91
2019-02-10T09:42:34.860Z,96278.63
2019-02-10T09:45:03.300Z,96276.48
2019-02-10T09:47:32.091Z,96276.95
2019-02-10T09:50:00.546Z,96263.80
2019-02-10T09:52:29.028Z,96254.73
2019-02-10T09:54:57.846Z,96261.65
2019-02-10T09:57:26.954Z,96272.64
2019-02-10T09:59:56.004Z,96257.89
2019-02-10T10:02:24.452Z,96267.20
2019-02-10T10:04:53.374Z,96242.73
2019-02-10T10:07:21.800Z,96243.86
2019-02-10T10:09:50.293Z,96237.71
2019-02-10T10:12:19.433Z,96231.59
2019-02-10T10:14:48.429Z,96235.47
2019-02-10T10:17:17.420Z,96248.38
2019-02-10T10:19:46.214Z,96227.87
2019-02-10T10:22:16.922Z,96243.03
2019-02-10T10:24:50.470Z,96244.27
2019-02-10T10:27:15.996Z,96237.91
2019-02-10T10:29:44.713Z,96246.30
2019-02-10T10:32:13.818Z,96235.42
2019-02-10T10:34:42.911Z,96229.19
2019-02-10T10:37:11.677Z,96232.47
2019-02-10T10:39:40.154Z,96224.99
2019-02-10T10:42:09.192Z,96224.99
2019-02-10T10:44:37.724Z,96212.63
2019-02-10T10:47:06.615Z,96211.51
2019-02-10T10:49:35.410Z,96213.66
2019-02-10T10:52:03.854Z,96207.39
2019-02-10T10:54:32.300Z,96205.14
2019-02-10T10:57:00.743Z,96201.86
2019-02-10T10:59:32.258Z,96211.13
2019-02-10T11:02:00.957Z,96196.48
2019-02-10T11:04:29.689Z,96198.05
2019-02-10T11:06:58.116Z,96185.24
2019-02-10T11:09:26.846Z,96186.48
2019-02-10T11:11:55.987Z,96172.08
2019-02-10T11:14:24.687Z,96169.11
2019-02-10T11:16:53.128Z,96181.81
2019-02-10T11:19:21.565Z,96165.95
2019-02-10T11:21:50.022Z,96168.67
2019-02-10T11:24:18.450Z,96161.41
2019-02-10T11:26:46.905Z,96162.28
2019-02-10T11:29:15.651Z,96148.81
2019-02-10T11:31:44.092Z,96142.94
2019-02-10T11:34:12.816Z,96134.23
2019-02-10T11:36:41.541Z,96133.54
2019-02-10T11:39:10.299Z,96125.63
2019-02-10T11:41:39.065Z,96122.22
2019-02-10T11:44:07.765Z,96124.05
2019-02-10T11:46:36.222Z,96101.84
2019-02-10T11:49:04.930Z,96110.67
2019-02-10T11:51:33.621Z,96103.64
2019-02-10T11:54:03.660Z,96087.76
2019-02-10T11:56:32.098Z,96080.76
2019-02-10T11:59:01.107Z,96089.12
2019-02-10T12:01:29.545Z,96085.77
2019-02-10T12:03:57.974Z,96082.38
2019-02-10T12:06:26.689Z,96065.70
2019-02-10T12:08:55.142Z,96062.41
2019-02-10T12:11:23.601Z,96056.41
2019-02-10T12:13:52.297Z,96051.97
2019-02-10T12:16:21.697Z,96068.52
2019-02-10T12:18:50.145Z,96039.72
2019-02-10T12:21:18.591Z,96039.95
2019-02-10T12:23:47.023Z,96020.48
2019-02-10T12:26:15.460Z,96026.23
2019-02-10T12:28:43.893Z,96019.77
2019-02-10T12:31:12.349Z,96020.92
2019-02-10T12:33:40.959Z,96008.88
2019-02-10T12:36:09.694Z,96009.11
2019-02-10T12:38:38.143Z,96008.88
2019-02-10T12:41:06.592Z,96008.88
2019-02-10T12:43:35.593Z,96017.77
2019-02-10T12:46:04.265Z,95999.30
2019-02-10T12:48:33.783Z,95997.56
2019-02-10T12:51:02.299Z,95994.16
2019-02-10T12:53:31.067Z,95989.84
2019-02-10T12:55:59.806Z,95984.40
2019-02-10T12:58:28.259Z,95983.63
2019-02-10T13:00:57.017Z,95980.19
2019-02-10T13:03:25.473Z,95978.26
2019-02-10T13:05:53.903Z,95966.68
2019-02-10T13:08:22.378Z,95965.55
2019-02-10T13:10:51.143Z,95972.73
2019-02-10T13:13:19.934Z,95957.45
2019-02-10T13:15:48.353Z,95972.38
2019-02-10T13:18:17.432Z,95970.92
2019-02-10T13:20:45.885Z,95971.81
2019-02-10T13:23:14.324Z,95963.55
2019-02-10T13:25:43.171Z,95963.92
2019-02-10T13:28:12.059Z,95960.70
2019-02-10T13:30:40.942Z,95957.84
2019-02-10T13:33:09.383Z,95949.54
2019-02-10T13:35:38.523Z,95950.85
2019-02-10T13:38:07.018Z,95953.14
2019-02-10T13:40:35.439Z,95952.92
2019-02-10T13:43:03.893Z,95947.24
2019-02-10T13:45:32.652Z,95943.12
2019-02-10T13:48:01.207Z,95943.06
2019-02-10T13:50:29.914Z,95944.91
2019-02-10T13:52:58.396Z,95945.79
2019-02-10T13:55:27.141Z,95949.41
2019-02-10T13:57:55.583Z,95960.30
2019-02-10T14:00:24.040Z,95951.15
2019-02-10T14:02:52.764Z,95950.36
2019-02-10T14:05:21.214Z,95959.50
2019-02-10T14:07:51.052Z,95947.72
2019-02-10T14:10:25.583Z,95957.20
2019-02-10T14:12:51.262Z,95955.19
2019-02-10T14:15:20.044Z,95953.03
2019-02-10T14:17:48.829Z,95949.27
2019-02-10T14:20:17.257Z,95964.86
2019-02-10T14:22:45.731Z,95963.64
2019-02-10T14:25:14.179Z,95957.72
2019-02-10T14:27:42.919Z,95970.81
2019-02-10T14:30:13.050Z,95965.66
2019-02-10T14:32:41.496Z,96005.98
2019-02-10T14:35:09.960Z,95975.97
2019-02-10T14:37:38.559Z,95977.19
2019-02-10T14:40:07.077Z,95969.92
2019-02-10T14:42:35.894Z,95979.95
2019-02-10T14:45:04.787Z,95986.11
2019-02-10T14:47:33.217Z,95997.63
2019-02-10T14:50:01.751Z,95998.91
2019-02-10T14:52:30.174Z,95990.02
2019-02-10T14:54:58.878Z,95998.52
2019-02-10T14:57:27.610Z,96012.39
2019-02-10T14:59:56.567Z,95991.32
2019-02-10T15:02:24.996Z,95999.84
2019-02-10T15:04:53.451Z,95997.70
2019-02-10T15:07:25.294Z,95998.89
2019-02-10T15:09:52.066Z,96000.59
2019-02-10T15:12:20.527Z,95991.80
2019-02-10T15:14:48.973Z,95993.61
2019-02-10T15:17:17.758Z,95995.41
2019-02-10T15:19:46.788Z,96002.70
2019-02-10T15:22:15.472Z,95998.39
2019-02-10T15:24:44.247Z,96002.05
2019-02-10T15:27:13.020Z,96013.19
2019-02-10T15:29:41.743Z,96000.29
2019-02-10T15:32:16.650Z,96005.30
2019-02-10T15:34:41.361Z,96007.16
2019-02-10T15:37:10.313Z,96002.41
2019-02-10T15:39:38.748Z,96010.23
2019-02-10T15:42:09.393Z,96001.61
2019-02-10T15:44:37.945Z,96002.61
2019-02-10T15:47:06.631Z,96011.95
2019-02-10T15:49:35.391Z,96007.45
2019-02-10T15:52:04.131Z,96005.73
2019-02-10T15:54:32.568Z,96014.68
2019-02-10T15:57:00.994Z,96006.42
2019-02-10T15:59:29.750Z,96014.51
2019-02-10T16:01:58.518Z,96002.94
2019-02-10T16:04:27.285Z,95999.75
2019-02-10T16:06:56.526Z,96006.25
2019-02-10T16:09:25.019Z,95989.38
2019-02-10T16:11:53.717Z,95984.63
2019-02-10T16:14:22.153Z,95990.73
2019-02-10T16:16:50.583Z,95997.30
2019-02-10T16:19:19.369Z,96005.69
2019-02-10T16:21:47.826Z,96000.74
2019-02-10T16:24:16.249Z,96005.21
2019-02-10T16:26:44.694Z,95996.52
2019-02-10T16:29:13.115Z,95999.36
2019-02-10T16:31:42.053Z,95997.47
2019-02-10T16:34:10.714Z,96009.70
2019-02-10T16:36:39.438Z,96010.26
2019-02-10T16:39:12.183Z,96016.64
2019-02-10T16:41:40.673Z,96015.26
2019-02-10T16:44:09.381Z,96011.88
2019-02-10T16:46:38.059Z,96022.61
2019-02-10T16:49:06.499Z,96023.10
2019-02-10T16:51:35.562Z,96026.27
2019-02-10T16:54:04.038Z,96026.97
2019-02-10T16:56:32.694Z,96029.24
2019-02-10T16:59:03.168Z,96028.12
2019-02-10T17:01:32.239Z,96026.51
2019-02-10T17:04:00.738Z,96030.09
2019-02-10T17:06:29.482Z,96029.89
2019-02-10T17:08:57.911Z,96037.81
2019-02-10T17:11:27.032Z,96024.20
2019-02-10T17:13:55.472Z,96032.61
2019-02-10T17:16:24.625Z,96029.89
2019-02-10T17:18:53.323Z,96032.02
2019-02-10T17:21:21.762Z,96039.41
2019-02-10T17:23:50.465Z,96041.78
2019-02-10T17:26:19.480Z,96044.19
2019-02-10T17:28:48.168Z,96066.05
2019-02-10T17:31:17.161Z,96063.27
2019-02-10T17:33:45.586Z,96068.23
2019-02-10T17:36:14.021Z,96071.52
2019-02-10T17:38:42.488Z,96068.48
2019-02-10T17:41:22.783Z,96081.86
2019-02-10T17:43:50.610Z,96075.31
2019-02-10T17:46:19.053Z,96075.55
2019-02-10T17:48:47.535Z,96089.80
2019-02-10T17:51:16.015Z,96084.25
2019-02-10T17:53:44.468Z,96086.41
2019-02-10T17:56:12.889Z,96087.77
2019-02-10T17:58:41.327Z,96096.70
2019-02-10T18:01:09.753Z,96092.40
2019-02-10T18:03:38.728Z,96091.87
2019-02-10T18:06:07.152Z,96097.50
2019-02-10T18:08:35.942Z,96091.52
2019-02-10T18:11:04.393Z,96092.08
2019-02-10T18:13:32.839Z,96099.77
2019-02-10T18:16:17.652Z,96121.72
2019-02-10T18:18:53.345Z,96112.90
2019-02-10T18:21:43.120Z,96126.56
2019-02-10T18:24:21.598Z,96121.60
2019-02-10T18:27:06.449Z,96134.03
2019-02-10T18:30:00.862Z,96134.94
2019-02-10T18:32:47.165Z,96132.00
2019-02-10T18:35:42.282Z,96132.67
2019-02-10T18:38:23.794Z,96140.59
2019-02-10T18:41:11.280Z,96144.87
2019-02-10T18:44:01.532Z,96145.23
2019-02-10T18:46:52.174Z,96140.47
2019-02-10T18:49:38.777Z,96144.66
2019-02-10T18:52:22.401Z,96135.95
2019-02-10T18:55:18.117Z,96143.77
2019-02-10T18:58:05.864Z,96144.77
2019-02-10T19:00:40.615Z,96151.33
2019-02-10T19:03:32.535Z,96137.78
2019-02-10T19:06:09.152Z,96159.93
2019-02-10T19:09:03.829Z,96174.83
2019-02-10T19:12:01.422Z,96162.19
2019-02-10T19:14:51.729Z,96180.02
2019-02-10T19:17:39.481Z,96182.47
2019-02-10T19:20:36.157Z,96196.45
2019-02-10T19:23:41.977Z,96197.77
2019-02-10T19:26:25.716Z,96220.70
2019-02-10T19:29:32.138Z,96233.00
2019-02-10T19:32:18.930Z,96231.61
2019-02-10T19:35:00.918Z,96248.77
2019-02-10T19:37:47.393Z,96251.44
2019-02-10T19:40:23.972Z,96257.05
2019-02-10T19:43:30.336Z,96268.30
2019-02-10T19:46:16.461Z,96270.39
2019-02-10T19:49:03.171Z,96292.89
2019-02-10T19:51:50.968Z,96289.95
2019-02-10T19:54:28.157Z,96302.97
2019-02-10T19:57:28.260Z,96306.04
2019-02-10T20:00:34.440Z,96305.69
2019-02-10T20:03:09.704Z,96306.44
2019-02-10T20:05:57.693Z,96327.97
2019-02-10T20:08:43.358Z,96342.78
2019-02-10T20:11:33.445Z,96336.14
2019-02-10T20:14:17.138Z,96348.06
2019-02-10T20:17:10.715Z,96353.00
2019-02-10T20:19:50.979Z,96348.86
2019-02-10T20:22:24.962Z,96360.47
2019-02-10T20:25:01.022Z,96366.13
2019-02-10T20:28:00.536Z,96376.64
2019-02-10T20:30:43.794Z,96385.38
2019-02-10T20:33:21.045Z,96389.77
2019-02-10T20:36:09.976Z,96398.03
2019-02-10T20:39:06.660Z,96408.27
2019-02-10T20:41:48.587Z,96412.41
2019-02-10T20:44:36.886Z,96426.95
2019-02-10T20:47:16.363Z,96427.69
2019-02-10T20:50:04.380Z,96441.36
2019-02-10T20:52:46.526Z,96444.36
2019-02-10T20:55:25.321Z,96461.05
2019-02-10T20:58:12.770Z,96469.96
2019-02-10T21:00:59.431Z,96479.90
2019-02-10T21:03:45.613Z,96484.61
2019-02-10T21:06:31.889Z,96496.81
2019-02-10T21:09:21.709Z,96492.36
2019-02-10T21:12:05.606Z,96505.80
2019-02-10T21:14:53.047Z,96515.33
2019-02-10T21:17:39.113Z,96519.59
2019-02-10T21:20:29.780Z,96521.93
2019-02-10T21:23:23.734Z,96532.01
2019-02-10T21:26:01.790Z,96530.59
2019-02-10T21:28:47.951Z,96548.13
2019-02-10T21:31:34.574Z,96547.66
2019-02-10T21:34:31.596Z,96562.87
2019-02-10T21:37:19.420Z,96569.63
2019-02-10T21:40:15.870Z,96577.79
2019-02-10T21:42:52.834Z,96581.91
2019-02-10T21:45:46.585Z,96589.34
2019-02-10T21:48:33.982Z,96590.14
2019-02-10T21:51:02.736Z,96596.16
2019-02-10T21:53:32.641Z,96599.59
2019-02-10T21:56:01.753Z,96605.25
2019-02-10T21:58:30.726Z,96614.38
2019-02-10T22:00:59.542Z,96629.94
2019-02-10T22:03:28.113Z,96631.09
2019-02-10T22:05:57.088Z,96634.17
2019-02-10T22:08:26.006Z,96634.66
2019-02-10T22:10:54.980Z,96648.64
2019-02-10T22:13:23.870Z,96658.76
2019-02-10T22:15:53.369Z,96659.88
2019-02-10T22:18:21.891Z,96677.31
2019-02-10T22:20:50.397Z,96676.94
2019-02-10T22:23:18.857Z,96682.59
2019-02-10T22:25:47.352Z,96689.62
2019-02-10T22:28:15.800Z,96691.52
2019-02-10T22:30:44.225Z,96699.88
2019-02-10T22:33:13.037Z,96715.28
2019-02-10T22:35:41.463Z,96707.84
2019-02-10T22:38:10.326Z,96718.44
2019-02-10T22:40:39.061Z,96724.32
2019-02-10T22:43:07.683Z,96730.00
2019-02-10T22:45:36.673Z,96743.01
2019-02-10T22:48:05.181Z,96753.80
2019-02-10T22:50:35.294Z,96761.46
2019-02-10T22:53:03.799Z,96758.45
2019-02-10T22:55:32.316Z,96771.34
2019-02-10T22:58:00.746Z,96782.34
2019-02-10T23:00:47.012Z,96796.70
2019-02-10T23:03:16.383Z,96795.08
2019-02-10T23:05:44.935Z,96805.48
2019-02-10T23:08:13.752Z,96809.37
2019-02-10T23:10:42.271Z,96819.56
2019-02-10T23:13:11.364Z,96828.52
2019-02-10T23:15:39.793Z,96829.91
2019-02-10T23:18:08.224Z,96832.56
2019-02-10T23:20:36.647Z,96842.41
2019-02-10T23:23:05.389Z,96853.45
2019-02-10T23:25:33.885Z,96848.30
2019-02-10T23:28:02.862Z,96854.94
2019-02-10T23:30:31.580Z,96864.74
2019-02-10T23:33:00.009Z,96881.69
2019-02-10T23:35:28.578Z,96895.68
2019-02-10T23:37:57.003Z,96906.37
2019-02-10T23:40:25.635Z,96916.63
2019-02-10T23:43:01.728Z,96931.33
2019-02-10T23:45:24.888Z,96932.46
2019-02-10T23:47:53.576Z,96945.67
2019-02-10T23:50:22.564Z,96945.33
2019-02-10T23:52:51.256Z,96953.88
2019-02-10T23:55:19.824Z,96962.23
2019-02-10T23:57:48.586Z,96975.42
